Stagecoach, Nevada
Current Conditions -  °F | °C
As of 6:15 PM on Friday 31 Oct 2014 (Local Time) from KCXP Reporting Station
Clear Clear  
Wind Chill: 57°   Ceiling: Unl
Heat Index: 57°   Visibility: 10mi
Dew Point: 32°   Wind: 9mph
Humidity: 38%   Direction: 230°SW
Pressure: 29.69"   Gusts: 21mph
Location:  39.3955°N, 119.266°W
Report Text: KCXP 010115Z AUTO 23008G18KT 10SM CLR 14/00 A2969 RMK AO2
Loading
Personal Weather Stations






























Interactive Weather Map
Tropical Storm Tracking
New forecast layout! Learn more

10-Day Weather Forecast

Advertisements
Track Severe Weather on mobile